sensor_id;sensor_type;location;lat;lon;timestamp;P1;durP1;ratioP1;P2;durP2;ratioP2
75584;SDS011;64162;53.508;10.476;2022-10-31T00:00:46;50.33;;;18.30;;
75584;SDS011;64162;53.508;10.476;2022-10-31T00:03:12;48.90;;;18.05;;
75584;SDS011;64162;53.508;10.476;2022-10-31T00:05:45;50.38;;;18.85;;
75584;SDS011;64162;53.508;10.476;2022-10-31T00:08:11;44.42;;;16.02;;
75584;SDS011;64162;53.508;10.476;2022-10-31T00:10:38;47.90;;;17.55;;
75584;SDS011;64162;53.508;10.476;2022-10-31T00:13:04;42.67;;;15.88;;
75584;SDS011;64162;53.508;10.476;2022-10-31T00:15:30;39.28;;;15.27;;
75584;SDS011;64162;53.508;10.476;2022-10-31T00:17:55;52.08;;;17.63;;
75584;SDS011;64162;53.508;10.476;2022-10-31T00:20:20;48.75;;;16.75;;
75584;SDS011;64162;53.508;10.476;2022-10-31T00:22:45;54.35;;;19.70;;
75584;SDS011;64162;53.508;10.476;2022-10-31T00:25:11;44.50;;;16.52;;
75584;SDS011;64162;53.508;10.476;2022-10-31T00:27:36;49.08;;;18.27;;
75584;SDS011;64162;53.508;10.476;2022-10-31T00:30:02;57.20;;;21.02;;
75584;SDS011;64162;53.508;10.476;2022-10-31T00:32:28;60.17;;;19.35;;
75584;SDS011;64162;53.508;10.476;2022-10-31T00:37:20;49.10;;;17.17;;
75584;SDS011;64162;53.508;10.476;2022-10-31T00:39:46;53.67;;;16.75;;
75584;SDS011;64162;53.508;10.476;2022-10-31T00:44:41;57.67;;;19.38;;
75584;SDS011;64162;53.508;10.476;2022-10-31T00:47:06;67.70;;;20.70;;
75584;SDS011;64162;53.508;10.476;2022-10-31T00:49:32;62.15;;;21.13;;
75584;SDS011;64162;53.508;10.476;2022-10-31T00:51:57;79.80;;;23.63;;
75584;SDS011;64162;53.508;10.476;2022-10-31T00:54:22;94.82;;;26.27;;
75584;SDS011;64162;53.508;10.476;2022-10-31T00:56:48;103.63;;;25.67;;
75584;SDS011;64162;53.508;10.476;2022-10-31T00:59:13;130.00;;;29.58;;
75584;SDS011;64162;53.508;10.476;2022-10-31T01:01:40;72.47;;;23.83;;
75584;SDS011;64162;53.508;10.476;2022-10-31T01:04:05;82.55;;;24.55;;
75584;SDS011;64162;53.508;10.476;2022-10-31T01:06:31;73.70;;;21.65;;
75584;SDS011;64162;53.508;10.476;2022-10-31T01:08:56;63.40;;;20.40;;
75584;SDS011;64162;53.508;10.476;2022-10-31T01:11:22;79.72;;;22.98;;
75584;SDS011;64162;53.508;10.476;2022-10-31T01:13:49;71.15;;;22.40;;
75584;SDS011;64162;53.508;10.476;2022-10-31T01:16:17;73.00;;;21.98;;
75584;SDS011;64162;53.508;10.476;2022-10-31T01:18:44;58.80;;;21.35;;
75584;SDS011;64162;53.508;10.476;2022-10-31T01:21:11;67.72;;;22.77;;
75584;SDS011;64162;53.508;10.476;2022-10-31T01:23:38;65.00;;;22.33;;
75584;SDS011;64162;53.508;10.476;2022-10-31T01:28:31;71.47;;;23.25;;
75584;SDS011;64162;53.508;10.476;2022-10-31T01:30:59;82.90;;;24.85;;
75584;SDS011;64162;53.508;10.476;2022-10-31T01:33:26;88.95;;;26.00;;
75584;SDS011;64162;53.508;10.476;2022-10-31T01:35:52;113.97;;;31.85;;
75584;SDS011;64162;53.508;10.476;2022-10-31T01:38:17;98.15;;;29.60;;
75584;SDS011;64162;53.508;10.476;2022-10-31T01:40:42;103.95;;;28.70;;
75584;SDS011;64162;53.508;10.476;2022-10-31T01:43:12;108.07;;;30.48;;
75584;SDS011;64162;53.508;10.476;2022-10-31T01:45:38;79.70;;;26.17;;
75584;SDS011;64162;53.508;10.476;2022-10-31T01:48:04;111.95;;;29.15;;
75584;SDS011;64162;53.508;10.476;2022-10-31T01:50:31;81.53;;;26.15;;
75584;SDS011;64162;53.508;10.476;2022-10-31T01:53:02;105.10;;;27.92;;
75584;SDS011;64162;53.508;10.476;2022-10-31T01:55:35;88.38;;;26.98;;
75584;SDS011;64162;53.508;10.476;2022-10-31T01:58:07;76.05;;;24.70;;
75584;SDS011;64162;53.508;10.476;2022-10-31T02:00:37;72.03;;;23.98;;
75584;SDS011;64162;53.508;10.476;2022-10-31T02:03:03;87.07;;;26.05;;
75584;SDS011;64162;53.508;10.476;2022-10-31T02:05:29;92.95;;;27.17;;
75584;SDS011;64162;53.508;10.476;2022-10-31T02:07:57;68.95;;;24.40;;
75584;SDS011;64162;53.508;10.476;2022-10-31T02:10:28;79.28;;;24.33;;
75584;SDS011;64162;53.508;10.476;2022-10-31T02:12:56;113.03;;;32.38;;
75584;SDS011;64162;53.508;10.476;2022-10-31T02:15:23;126.55;;;34.60;;
75584;SDS011;64162;53.508;10.476;2022-10-31T02:17:49;116.88;;;38.17;;
75584;SDS011;64162;53.508;10.476;2022-10-31T02:22:53;105.68;;;33.00;;
75584;SDS011;64162;53.508;10.476;2022-10-31T02:36:39;108.72;;;33.92;;
75584;SDS011;64162;53.508;10.476;2022-10-31T02:39:31;117.07;;;32.50;;
75584;SDS011;64162;53.508;10.476;2022-10-31T02:42:09;113.75;;;32.10;;
75584;SDS011;64162;53.508;10.476;2022-10-31T02:45:00;122.32;;;36.58;;
75584;SDS011;64162;53.508;10.476;2022-10-31T02:47:36;113.15;;;35.03;;
75584;SDS011;64162;53.508;10.476;2022-10-31T02:50:05;125.00;;;36.58;;
75584;SDS011;64162;53.508;10.476;2022-10-31T02:52:41;103.53;;;35.42;;
75584;SDS011;64162;53.508;10.476;2022-10-31T02:57:48;119.93;;;33.03;;
75584;SDS011;64162;53.508;10.476;2022-10-31T03:00:14;121.50;;;35.63;;
75584;SDS011;64162;53.508;10.476;2022-10-31T03:02:52;126.32;;;39.97;;
75584;SDS011;64162;53.508;10.476;2022-10-31T03:08:01;145.93;;;37.80;;
75584;SDS011;64162;53.508;10.476;2022-10-31T03:13:20;142.82;;;38.53;;
75584;SDS011;64162;53.508;10.476;2022-10-31T03:15:53;143.38;;;38.20;;
75584;SDS011;64162;53.508;10.476;2022-10-31T03:18:32;172.50;;;41.05;;
75584;SDS011;64162;53.508;10.476;2022-10-31T03:21:14;143.93;;;41.35;;
75584;SDS011;64162;53.508;10.476;2022-10-31T03:23:46;160.60;;;41.78;;
75584;SDS011;64162;53.508;10.476;2022-10-31T03:26:18;152.15;;;40.00;;
75584;SDS011;64162;53.508;10.476;2022-10-31T03:31:29;161.75;;;43.90;;
75584;SDS011;64162;53.508;10.476;2022-10-31T03:34:01;149.73;;;42.83;;
75584;SDS011;64162;53.508;10.476;2022-10-31T03:36:29;186.13;;;44.58;;
75584;SDS011;64162;53.508;10.476;2022-10-31T03:39:38;168.70;;;44.25;;
75584;SDS011;64162;53.508;10.476;2022-10-31T03:42:40;148.43;;;41.72;;
75584;SDS011;64162;53.508;10.476;2022-10-31T03:45:20;174.32;;;46.80;;
75584;SDS011;64162;53.508;10.476;2022-10-31T03:48:03;171.95;;;40.78;;
75584;SDS011;64162;53.508;10.476;2022-10-31T03:50:44;172.30;;;43.65;;
75584;SDS011;64162;53.508;10.476;2022-10-31T03:53:26;175.73;;;43.33;;
75584;SDS011;64162;53.508;10.476;2022-10-31T03:56:35;149.63;;;37.63;;
75584;SDS011;64162;53.508;10.476;2022-10-31T03:59:07;182.13;;;43.72;;
75584;SDS011;64162;53.508;10.476;2022-10-31T04:01:40;164.35;;;41.25;;
75584;SDS011;64162;53.508;10.476;2022-10-31T04:04:11;178.48;;;44.17;;
75584;SDS011;64162;53.508;10.476;2022-10-31T04:06:37;174.63;;;40.38;;
75584;SDS011;64162;53.508;10.476;2022-10-31T04:09:05;167.07;;;42.55;;
75584;SDS011;64162;53.508;10.476;2022-10-31T04:11:35;168.50;;;41.58;;
75584;SDS011;64162;53.508;10.476;2022-10-31T04:14:24;176.05;;;41.35;;
75584;SDS011;64162;53.508;10.476;2022-10-31T04:16:53;159.77;;;38.78;;
75584;SDS011;64162;53.508;10.476;2022-10-31T04:19:25;176.75;;;42.80;;
75584;SDS011;64162;53.508;10.476;2022-10-31T04:21:50;194.80;;;43.13;;
75584;SDS011;64162;53.508;10.476;2022-10-31T04:24:15;156.32;;;38.45;;
75584;SDS011;64162;53.508;10.476;2022-10-31T04:26:41;196.77;;;40.70;;
75584;SDS011;64162;53.508;10.476;2022-10-31T04:29:06;197.48;;;43.72;;
75584;SDS011;64162;53.508;10.476;2022-10-31T04:31:32;190.02;;;43.47;;
75584;SDS011;64162;53.508;10.476;2022-10-31T04:33:57;199.93;;;47.25;;
75584;SDS011;64162;53.508;10.476;2022-10-31T04:36:22;207.80;;;45.05;;
75584;SDS011;64162;53.508;10.476;2022-10-31T04:38:48;210.23;;;48.03;;
75584;SDS011;64162;53.508;10.476;2022-10-31T04:41:27;207.32;;;46.33;;
75584;SDS011;64162;53.508;10.476;2022-10-31T04:44:07;230.68;;;47.28;;
75584;SDS011;64162;53.508;10.476;2022-10-31T04:46:32;249.77;;;51.50;;
75584;SDS011;64162;53.508;10.476;2022-10-31T04:49:03;247.82;;;53.25;;
75584;SDS011;64162;53.508;10.476;2022-10-31T04:51:28;279.98;;;57.28;;
75584;SDS011;64162;53.508;10.476;2022-10-31T04:53:56;416.25;;;68.85;;
75584;SDS011;64162;53.508;10.476;2022-10-31T04:56:46;383.55;;;68.85;;
75584;SDS011;64162;53.508;10.476;2022-10-31T04:59:18;456.27;;;76.13;;
75584;SDS011;64162;53.508;10.476;2022-10-31T05:06:07;541.10;;;88.88;;
75584;SDS011;64162;53.508;10.476;2022-10-31T05:09:55;358.13;;;73.10;;
75584;SDS011;64162;53.508;10.476;2022-10-31T05:12:37;414.67;;;77.03;;
75584;SDS011;64162;53.508;10.476;2022-10-31T05:15:33;434.05;;;78.35;;
75584;SDS011;64162;53.508;10.476;2022-10-31T05:18:31;463.17;;;78.15;;
75584;SDS011;64162;53.508;10.476;2022-10-31T05:21:40;466.30;;;80.35;;
75584;SDS011;64162;53.508;10.476;2022-10-31T05:24:46;470.77;;;81.20;;
75584;SDS011;64162;53.508;10.476;2022-10-31T05:27:12;359.90;;;70.95;;
75584;SDS011;64162;53.508;10.476;2022-10-31T05:29:43;356.40;;;70.93;;
75584;SDS011;64162;53.508;10.476;2022-10-31T05:32:08;368.65;;;68.18;;
75584;SDS011;64162;53.508;10.476;2022-10-31T05:35:05;315.40;;;65.45;;
75584;SDS011;64162;53.508;10.476;2022-10-31T05:38:16;301.65;;;64.47;;
75584;SDS011;64162;53.508;10.476;2022-10-31T05:40:42;371.75;;;69.28;;
75584;SDS011;64162;53.508;10.476;2022-10-31T05:43:14;330.08;;;67.20;;
75584;SDS011;64162;53.508;10.476;2022-10-31T05:45:46;412.65;;;71.50;;
75584;SDS011;64162;53.508;10.476;2022-10-31T05:48:30;373.52;;;69.55;;
75584;SDS011;64162;53.508;10.476;2022-10-31T05:51:15;358.38;;;64.35;;
75584;SDS011;64162;53.508;10.476;2022-10-31T05:53:41;317.25;;;63.72;;
75584;SDS011;64162;53.508;10.476;2022-10-31T05:56:06;378.25;;;68.43;;
75584;SDS011;64162;53.508;10.476;2022-10-31T05:58:32;370.20;;;65.97;;
75584;SDS011;64162;53.508;10.476;2022-10-31T06:01:03;415.75;;;71.30;;
75584;SDS011;64162;53.508;10.476;2022-10-31T06:03:31;395.25;;;69.10;;
75584;SDS011;64162;53.508;10.476;2022-10-31T06:05:59;368.50;;;64.60;;
75584;SDS011;64162;53.508;10.476;2022-10-31T06:08:29;372.17;;;66.38;;
75584;SDS011;64162;53.508;10.476;2022-10-31T06:10:58;367.05;;;66.15;;
75584;SDS011;64162;53.508;10.476;2022-10-31T06:13:50;327.10;;;60.72;;
75584;SDS011;64162;53.508;10.476;2022-10-31T06:16:21;336.50;;;62.85;;
75584;SDS011;64162;53.508;10.476;2022-10-31T06:18:47;330.67;;;61.38;;
75584;SDS011;64162;53.508;10.476;2022-10-31T06:21:12;354.23;;;61.47;;
75584;SDS011;64162;53.508;10.476;2022-10-31T06:23:38;340.02;;;61.60;;
75584;SDS011;64162;53.508;10.476;2022-10-31T06:26:39;320.23;;;57.40;;
75584;SDS011;64162;53.508;10.476;2022-10-31T06:29:04;349.92;;;61.58;;
75584;SDS011;64162;53.508;10.476;2022-10-31T06:31:47;360.38;;;59.15;;
75584;SDS011;64162;53.508;10.476;2022-10-31T06:34:16;393.85;;;63.33;;
75584;SDS011;64162;53.508;10.476;2022-10-31T06:36:45;336.27;;;60.15;;
75584;SDS011;64162;53.508;10.476;2022-10-31T06:41:36;317.07;;;48.93;;
75584;SDS011;64162;53.508;10.476;2022-10-31T06:44:02;383.30;;;52.97;;
75584;SDS011;64162;53.508;10.476;2022-10-31T06:46:47;354.95;;;52.03;;
75584;SDS011;64162;53.508;10.476;2022-10-31T06:49:51;351.05;;;53.95;;
75584;SDS011;64162;53.508;10.476;2022-10-31T06:52:20;379.88;;;56.33;;
75584;SDS011;64162;53.508;10.476;2022-10-31T06:54:45;336.85;;;49.55;;
75584;SDS011;64162;53.508;10.476;2022-10-31T06:57:12;337.73;;;48.40;;
75584;SDS011;64162;53.508;10.476;2022-10-31T06:59:38;348.92;;;49.67;;
75584;SDS011;64162;53.508;10.476;2022-10-31T07:02:22;310.17;;;45.22;;
75584;SDS011;64162;53.508;10.476;2022-10-31T07:04:48;315.27;;;43.00;;
75584;SDS011;64162;53.508;10.476;2022-10-31T07:07:15;298.17;;;43.30;;
75584;SDS011;64162;53.508;10.476;2022-10-31T07:09:41;286.05;;;42.85;;
75584;SDS011;64162;53.508;10.476;2022-10-31T07:12:08;302.67;;;42.50;;
75584;SDS011;64162;53.508;10.476;2022-10-31T07:14:37;309.67;;;45.78;;
75584;SDS011;64162;53.508;10.476;2022-10-31T07:17:02;291.95;;;42.83;;
75584;SDS011;64162;53.508;10.476;2022-10-31T07:19:34;303.48;;;41.92;;
75584;SDS011;64162;53.508;10.476;2022-10-31T07:21:59;274.33;;;38.10;;
75584;SDS011;64162;53.508;10.476;2022-10-31T07:27:24;317.30;;;40.67;;
75584;SDS011;64162;53.508;10.476;2022-10-31T07:29:50;307.63;;;42.60;;
75584;SDS011;64162;53.508;10.476;2022-10-31T07:32:15;333.60;;;44.03;;
75584;SDS011;64162;53.508;10.476;2022-10-31T07:34:47;331.77;;;48.17;;
75584;SDS011;64162;53.508;10.476;2022-10-31T07:37:38;315.50;;;44.70;;
75584;SDS011;64162;53.508;10.476;2022-10-31T07:40:04;288.73;;;39.35;;
75584;SDS011;64162;53.508;10.476;2022-10-31T07:42:37;283.73;;;38.38;;
75584;SDS011;64162;53.508;10.476;2022-10-31T07:45:04;291.98;;;40.45;;
75584;SDS011;64162;53.508;10.476;2022-10-31T07:47:51;285.38;;;39.13;;
75584;SDS011;64162;53.508;10.476;2022-10-31T07:50:36;284.25;;;40.67;;
75584;SDS011;64162;53.508;10.476;2022-10-31T07:53:40;282.15;;;38.13;;
75584;SDS011;64162;53.508;10.476;2022-10-31T07:56:21;273.42;;;40.05;;
75584;SDS011;64162;53.508;10.476;2022-10-31T07:58:46;280.55;;;37.63;;
75584;SDS011;64162;53.508;10.476;2022-10-31T08:01:12;265.40;;;35.80;;
75584;SDS011;64162;53.508;10.476;2022-10-31T08:03:46;257.92;;;34.17;;
75584;SDS011;64162;53.508;10.476;2022-10-31T08:06:30;237.32;;;35.17;;
75584;SDS011;64162;53.508;10.476;2022-10-31T08:09:09;263.88;;;37.10;;
75584;SDS011;64162;53.508;10.476;2022-10-31T08:11:34;229.13;;;33.63;;
75584;SDS011;64162;53.508;10.476;2022-10-31T08:14:03;219.20;;;31.58;;
75584;SDS011;64162;53.508;10.476;2022-10-31T08:16:28;209.82;;;32.97;;
75584;SDS011;64162;53.508;10.476;2022-10-31T08:18:58;226.25;;;31.05;;
75584;SDS011;64162;53.508;10.476;2022-10-31T08:21:24;221.75;;;31.55;;
75584;SDS011;64162;53.508;10.476;2022-10-31T08:23:49;215.60;;;31.70;;
75584;SDS011;64162;53.508;10.476;2022-10-31T08:26:17;203.02;;;29.73;;
75584;SDS011;64162;53.508;10.476;2022-10-31T08:28:43;210.93;;;30.67;;
75584;SDS011;64162;53.508;10.476;2022-10-31T08:31:08;194.70;;;29.58;;
75584;SDS011;64162;53.508;10.476;2022-10-31T08:33:37;208.75;;;31.27;;
75584;SDS011;64162;53.508;10.476;2022-10-31T08:36:23;179.90;;;26.50;;
75584;SDS011;64162;53.508;10.476;2022-10-31T08:39:01;188.90;;;27.45;;
75584;SDS011;64162;53.508;10.476;2022-10-31T08:41:43;178.38;;;28.08;;
75584;SDS011;64162;53.508;10.476;2022-10-31T08:44:28;184.70;;;27.98;;
75584;SDS011;64162;53.508;10.476;2022-10-31T08:46:58;176.23;;;29.80;;
75584;SDS011;64162;53.508;10.476;2022-10-31T08:49:27;168.07;;;27.95;;
75584;SDS011;64162;53.508;10.476;2022-10-31T08:51:59;170.20;;;28.02;;
75584;SDS011;64162;53.508;10.476;2022-10-31T08:54:31;167.02;;;26.67;;
75584;SDS011;64162;53.508;10.476;2022-10-31T08:57:43;169.10;;;27.58;;
75584;SDS011;64162;53.508;10.476;2022-10-31T09:00:10;183.52;;;28.10;;
75584;SDS011;64162;53.508;10.476;2022-10-31T09:02:42;185.43;;;26.77;;
75584;SDS011;64162;53.508;10.476;2022-10-31T09:05:08;156.63;;;24.40;;
75584;SDS011;64162;53.508;10.476;2022-10-31T09:07:42;183.27;;;28.00;;
75584;SDS011;64162;53.508;10.476;2022-10-31T09:10:12;194.65;;;30.55;;
75584;SDS011;64162;53.508;10.476;2022-10-31T09:12:37;193.70;;;28.15;;
75584;SDS011;64162;53.508;10.476;2022-10-31T09:21:28;174.95;;;26.63;;
75584;SDS011;64162;53.508;10.476;2022-10-31T09:23:59;147.13;;;23.65;;
75584;SDS011;64162;53.508;10.476;2022-10-31T09:26:28;109.93;;;21.55;;
75584;SDS011;64162;53.508;10.476;2022-10-31T09:31:57;117.82;;;21.48;;
75584;SDS011;64162;53.508;10.476;2022-10-31T09:34:27;101.45;;;19.65;;
75584;SDS011;64162;53.508;10.476;2022-10-31T09:37:04;119.43;;;20.23;;
75584;SDS011;64162;53.508;10.476;2022-10-31T09:39:32;122.40;;;20.23;;
75584;SDS011;64162;53.508;10.476;2022-10-31T09:44:57;105.95;;;18.60;;
75584;SDS011;64162;53.508;10.476;2022-10-31T09:47:41;86.00;;;18.20;;
75584;SDS011;64162;53.508;10.476;2022-10-31T09:54:18;80.35;;;18.60;;
75584;SDS011;64162;53.508;10.476;2022-10-31T09:56:24;65.75;;;14.95;;
75584;SDS011;64162;53.508;10.476;2022-10-31T09:59:01;63.00;;;15.98;;
75584;SDS011;64162;53.508;10.476;2022-10-31T10:04:24;60.35;;;13.07;;
75584;SDS011;64162;53.508;10.476;2022-10-31T10:07:01;39.00;;;14.18;;
75584;SDS011;64162;53.508;10.476;2022-10-31T10:09:42;42.28;;;12.68;;
75584;SDS011;64162;53.508;10.476;2022-10-31T10:13:34;46.67;;;11.07;;
75584;SDS011;64162;53.508;10.476;2022-10-31T10:21:44;41.17;;;12.85;;
75584;SDS011;64162;53.508;10.476;2022-10-31T10:27:03;38.72;;;12.80;;
75584;SDS011;64162;53.508;10.476;2022-10-31T10:32:11;35.40;;;11.52;;
75584;SDS011;64162;53.508;10.476;2022-10-31T10:34:44;35.83;;;13.70;;
75584;SDS011;64162;53.508;10.476;2022-10-31T10:37:38;35.10;;;11.15;;
75584;SDS011;64162;53.508;10.476;2022-10-31T10:40:16;38.42;;;11.90;;
75584;SDS011;64162;53.508;10.476;2022-10-31T10:42:45;26.05;;;11.15;;
75584;SDS011;64162;53.508;10.476;2022-10-31T10:45:40;25.08;;;10.43;;
75584;SDS011;64162;53.508;10.476;2022-10-31T10:48:37;25.95;;;9.60;;
75584;SDS011;64162;53.508;10.476;2022-10-31T10:51:19;28.33;;;8.70;;
75584;SDS011;64162;53.508;10.476;2022-10-31T11:06:21;20.90;;;8.23;;
75584;SDS011;64162;53.508;10.476;2022-10-31T11:08:54;18.23;;;7.68;;
75584;SDS011;64162;53.508;10.476;2022-10-31T11:11:29;19.02;;;8.73;;
75584;SDS011;64162;53.508;10.476;2022-10-31T11:19:12;16.08;;;8.63;;
75584;SDS011;64162;53.508;10.476;2022-10-31T11:21:42;15.70;;;7.57;;
75584;SDS011;64162;53.508;10.476;2022-10-31T11:24:18;17.52;;;8.10;;
75584;SDS011;64162;53.508;10.476;2022-10-31T11:27:02;20.52;;;10.32;;
75584;SDS011;64162;53.508;10.476;2022-10-31T11:29:41;16.60;;;7.00;;
75584;SDS011;64162;53.508;10.476;2022-10-31T11:32:20;15.70;;;7.15;;
75584;SDS011;64162;53.508;10.476;2022-10-31T11:34:56;17.08;;;8.40;;
75584;SDS011;64162;53.508;10.476;2022-10-31T11:37:26;18.83;;;7.65;;
75584;SDS011;64162;53.508;10.476;2022-10-31T11:40:02;15.65;;;7.30;;
75584;SDS011;64162;53.508;10.476;2022-10-31T11:42:38;13.40;;;5.88;;
75584;SDS011;64162;53.508;10.476;2022-10-31T11:45:17;14.45;;;7.88;;
75584;SDS011;64162;53.508;10.476;2022-10-31T11:47:54;15.30;;;8.02;;
75584;SDS011;64162;53.508;10.476;2022-10-31T11:50:23;16.85;;;6.85;;
75584;SDS011;64162;53.508;10.476;2022-10-31T11:52:52;19.88;;;8.77;;
75584;SDS011;64162;53.508;10.476;2022-10-31T11:56:05;18.48;;;7.85;;
75584;SDS011;64162;53.508;10.476;2022-10-31T11:58:23;14.85;;;6.82;;
75584;SDS011;64162;53.508;10.476;2022-10-31T12:00:55;12.30;;;6.22;;
75584;SDS011;64162;53.508;10.476;2022-10-31T12:06:12;13.70;;;5.50;;
75584;SDS011;64162;53.508;10.476;2022-10-31T12:08:39;15.43;;;7.68;;
75584;SDS011;64162;53.508;10.476;2022-10-31T12:17:03;12.68;;;5.80;;
75584;SDS011;64162;53.508;10.476;2022-10-31T12:28:31;11.90;;;6.13;;
75584;SDS011;64162;53.508;10.476;2022-10-31T12:33:42;11.35;;;7.40;;
75584;SDS011;64162;53.508;10.476;2022-10-31T12:41:40;15.82;;;6.47;;
75584;SDS011;64162;53.508;10.476;2022-10-31T12:46:59;11.40;;;6.78;;
75584;SDS011;64162;53.508;10.476;2022-10-31T12:49:38;15.45;;;6.38;;
75584;SDS011;64162;53.508;10.476;2022-10-31T12:57:29;15.45;;;7.28;;
75584;SDS011;64162;53.508;10.476;2022-10-31T13:05:31;14.73;;;7.22;;
75584;SDS011;64162;53.508;10.476;2022-10-31T13:08:22;15.02;;;7.13;;
75584;SDS011;64162;53.508;10.476;2022-10-31T13:10:51;14.68;;;7.88;;
75584;SDS011;64162;53.508;10.476;2022-10-31T13:13:36;15.45;;;8.50;;
75584;SDS011;64162;53.508;10.476;2022-10-31T13:16:40;15.13;;;8.38;;
75584;SDS011;64162;53.508;10.476;2022-10-31T13:24:20;16.27;;;8.35;;
75584;SDS011;64162;53.508;10.476;2022-10-31T13:26:56;15.25;;;9.27;;
75584;SDS011;64162;53.508;10.476;2022-10-31T13:31:52;21.02;;;9.93;;
75584;SDS011;64162;53.508;10.476;2022-10-31T13:45:30;18.15;;;8.73;;
75584;SDS011;64162;53.508;10.476;2022-10-31T13:48:01;18.00;;;8.20;;
75584;SDS011;64162;53.508;10.476;2022-10-31T13:50:58;18.33;;;9.68;;
75584;SDS011;64162;53.508;10.476;2022-10-31T13:56:43;17.65;;;9.18;;
75584;SDS011;64162;53.508;10.476;2022-10-31T13:59:30;16.10;;;9.23;;
75584;SDS011;64162;53.508;10.476;2022-10-31T14:02:02;20.15;;;9.85;;
75584;SDS011;64162;53.508;10.476;2022-10-31T14:04:52;19.02;;;8.68;;
75584;SDS011;64162;53.508;10.476;2022-10-31T14:12:31;17.55;;;8.60;;
75584;SDS011;64162;53.508;10.476;2022-10-31T14:15:04;19.40;;;9.55;;
75584;SDS011;64162;53.508;10.476;2022-10-31T14:17:44;19.13;;;9.20;;
75584;SDS011;64162;53.508;10.476;2022-10-31T14:20:46;18.50;;;9.05;;
75584;SDS011;64162;53.508;10.476;2022-10-31T14:30:19;17.13;;;8.73;;
75584;SDS011;64162;53.508;10.476;2022-10-31T14:33:10;17.58;;;7.95;;
75584;SDS011;64162;53.508;10.476;2022-10-31T14:36:15;22.73;;;10.18;;
75584;SDS011;64162;53.508;10.476;2022-10-31T14:41:35;26.55;;;10.60;;
75584;SDS011;64162;53.508;10.476;2022-10-31T14:50:43;24.65;;;10.63;;
75584;SDS011;64162;53.508;10.476;2022-10-31T14:53:16;22.90;;;9.02;;
75584;SDS011;64162;53.508;10.476;2022-10-31T14:55:57;26.77;;;10.50;;
75584;SDS011;64162;53.508;10.476;2022-10-31T14:58:32;24.38;;;10.70;;
75584;SDS011;64162;53.508;10.476;2022-10-31T15:01:03;24.95;;;10.10;;
75584;SDS011;64162;53.508;10.476;2022-10-31T15:03:30;26.17;;;9.68;;
75584;SDS011;64162;53.508;10.476;2022-10-31T15:06:00;27.85;;;10.63;;
75584;SDS011;64162;53.508;10.476;2022-10-31T15:11:16;29.23;;;10.25;;
75584;SDS011;64162;53.508;10.476;2022-10-31T15:13:44;25.30;;;10.95;;
75584;SDS011;64162;53.508;10.476;2022-10-31T15:16:16;29.88;;;10.88;;
75584;SDS011;64162;53.508;10.476;2022-10-31T15:18:58;35.33;;;12.30;;
75584;SDS011;64162;53.508;10.476;2022-10-31T15:21:26;34.92;;;12.70;;
75584;SDS011;64162;53.508;10.476;2022-10-31T15:23:54;29.13;;;11.23;;
75584;SDS011;64162;53.508;10.476;2022-10-31T15:26:24;29.15;;;11.55;;
75584;SDS011;64162;53.508;10.476;2022-10-31T15:28:59;38.90;;;13.57;;
75584;SDS011;64162;53.508;10.476;2022-10-31T15:31:56;47.80;;;14.60;;
75584;SDS011;64162;53.508;10.476;2022-10-31T15:34:38;40.10;;;15.45;;
75584;SDS011;64162;53.508;10.476;2022-10-31T15:37:07;34.42;;;14.35;;
75584;SDS011;64162;53.508;10.476;2022-10-31T15:39:36;45.38;;;15.27;;
75584;SDS011;64162;53.508;10.476;2022-10-31T15:42:02;37.28;;;12.93;;
75584;SDS011;64162;53.508;10.476;2022-10-31T15:44:30;47.25;;;16.67;;
75584;SDS011;64162;53.508;10.476;2022-10-31T15:47:03;32.25;;;12.55;;
75584;SDS011;64162;53.508;10.476;2022-10-31T15:49:33;34.17;;;10.20;;
75584;SDS011;64162;53.508;10.476;2022-10-31T15:54:59;28.13;;;10.18;;
75584;SDS011;64162;53.508;10.476;2022-10-31T15:57:29;28.80;;;10.25;;
75584;SDS011;64162;53.508;10.476;2022-10-31T15:59:56;33.28;;;11.18;;
75584;SDS011;64162;53.508;10.476;2022-10-31T16:02:22;33.33;;;11.82;;
75584;SDS011;64162;53.508;10.476;2022-10-31T16:04:52;29.40;;;12.13;;
75584;SDS011;64162;53.508;10.476;2022-10-31T16:07:23;35.05;;;12.02;;
75584;SDS011;64162;53.508;10.476;2022-10-31T16:12:22;30.92;;;11.05;;
75584;SDS011;64162;53.508;10.476;2022-10-31T16:14:50;35.63;;;12.93;;
75584;SDS011;64162;53.508;10.476;2022-10-31T16:17:19;41.65;;;13.65;;
75584;SDS011;64162;53.508;10.476;2022-10-31T16:19:51;33.72;;;11.25;;
75584;SDS011;64162;53.508;10.476;2022-10-31T16:22:24;42.92;;;13.07;;
75584;SDS011;64162;53.508;10.476;2022-10-31T16:24:54;34.25;;;11.95;;
75584;SDS011;64162;53.508;10.476;2022-10-31T16:27:46;37.45;;;15.05;;
75584;SDS011;64162;53.508;10.476;2022-10-31T16:30:36;42.08;;;12.45;;
75584;SDS011;64162;53.508;10.476;2022-10-31T16:35:56;25.60;;;11.05;;
75584;SDS011;64162;53.508;10.476;2022-10-31T16:38:22;29.17;;;12.00;;
75584;SDS011;64162;53.508;10.476;2022-10-31T16:40:48;26.67;;;11.13;;
75584;SDS011;64162;53.508;10.476;2022-10-31T16:43:15;28.95;;;10.32;;
75584;SDS011;64162;53.508;10.476;2022-10-31T16:48:19;24.77;;;10.32;;
75584;SDS011;64162;53.508;10.476;2022-10-31T16:50:47;26.58;;;11.50;;
75584;SDS011;64162;53.508;10.476;2022-10-31T16:53:13;27.42;;;10.57;;
75584;SDS011;64162;53.508;10.476;2022-10-31T16:58:09;27.45;;;11.15;;
75584;SDS011;64162;53.508;10.476;2022-10-31T17:00:41;30.38;;;13.05;;
75584;SDS011;64162;53.508;10.476;2022-10-31T17:03:07;37.50;;;14.63;;
75584;SDS011;64162;53.508;10.476;2022-10-31T17:05:33;33.78;;;12.27;;
75584;SDS011;64162;53.508;10.476;2022-10-31T17:07:58;22.55;;;10.18;;
75584;SDS011;64162;53.508;10.476;2022-10-31T17:10:24;26.38;;;9.93;;
75584;SDS011;64162;53.508;10.476;2022-10-31T17:12:51;34.92;;;13.30;;
75584;SDS011;64162;53.508;10.476;2022-10-31T17:15:28;29.30;;;11.15;;
75584;SDS011;64162;53.508;10.476;2022-10-31T17:18:01;32.60;;;12.98;;
75584;SDS011;64162;53.508;10.476;2022-10-31T17:20:27;32.47;;;12.27;;
75584;SDS011;64162;53.508;10.476;2022-10-31T17:22:55;28.67;;;12.70;;
75584;SDS011;64162;53.508;10.476;2022-10-31T17:25:22;32.53;;;12.23;;
75584;SDS011;64162;53.508;10.476;2022-10-31T17:27:50;37.90;;;13.10;;
75584;SDS011;64162;53.508;10.476;2022-10-31T17:30:16;33.92;;;13.10;;
75584;SDS011;64162;53.508;10.476;2022-10-31T17:32:43;30.10;;;13.63;;
75584;SDS011;64162;53.508;10.476;2022-10-31T17:35:10;25.50;;;9.30;;
75584;SDS011;64162;53.508;10.476;2022-10-31T17:37:37;29.95;;;12.18;;
75584;SDS011;64162;53.508;10.476;2022-10-31T17:40:03;24.00;;;9.95;;
75584;SDS011;64162;53.508;10.476;2022-10-31T17:42:29;24.88;;;9.68;;
75584;SDS011;64162;53.508;10.476;2022-10-31T17:44:55;29.88;;;12.55;;
75584;SDS011;64162;53.508;10.476;2022-10-31T17:47:20;28.75;;;11.32;;
75584;SDS011;64162;53.508;10.476;2022-10-31T17:49:46;33.38;;;13.07;;